sensor_id;sensor_type;location;lat;lon;timestamp;temperature;humidity
77100;SHT31;66602;48.922;2.414;2023-12-28T00:01:24;10.86;82.30
77100;SHT31;66602;48.922;2.414;2023-12-28T00:03:49;10.86;82.29
77100;SHT31;66602;48.922;2.414;2023-12-28T00:06:16;10.95;82.09
77100;SHT31;66602;48.922;2.414;2023-12-28T00:08:42;10.92;82.12
77100;SHT31;66602;48.922;2.414;2023-12-28T00:11:08;10.93;82.05
77100;SHT31;66602;48.922;2.414;2023-12-28T00:13:33;10.86;82.15
77100;SHT31;66602;48.922;2.414;2023-12-28T00:15:59;10.86;82.18
77100;SHT31;66602;48.922;2.414;2023-12-28T00:18:25;10.86;82.09
77100;SHT31;66602;48.922;2.414;2023-12-28T00:20:51;10.86;82.11
77100;SHT31;66602;48.922;2.414;2023-12-28T00:23:17;10.85;82.28
77100;SHT31;66602;48.922;2.414;2023-12-28T00:25:43;10.91;82.11
77100;SHT31;66602;48.922;2.414;2023-12-28T00:28:08;10.77;82.43
77100;SHT31;66602;48.922;2.414;2023-12-28T00:30:34;10.76;82.53
77100;SHT31;66602;48.922;2.414;2023-12-28T00:32:59;10.83;82.32
77100;SHT31;66602;48.922;2.414;2023-12-28T00:35:25;10.77;82.56
77100;SHT31;66602;48.922;2.414;2023-12-28T00:37:50;10.72;82.80
77100;SHT31;66602;48.922;2.414;2023-12-28T00:40:16;10.82;82.52
77100;SHT31;66602;48.922;2.414;2023-12-28T00:42:41;10.77;82.54
77100;SHT31;66602;48.922;2.414;2023-12-28T00:45:08;10.73;82.66
77100;SHT31;66602;48.922;2.414;2023-12-28T00:47:33;10.73;82.76
77100;SHT31;66602;48.922;2.414;2023-12-28T00:49:59;10.72;82.93
77100;SHT31;66602;48.922;2.414;2023-12-28T00:52:24;10.75;83.04
77100;SHT31;66602;48.922;2.414;2023-12-28T00:54:50;10.72;83.11
77100;SHT31;66602;48.922;2.414;2023-12-28T00:57:15;10.66;83.36
77100;SHT31;66602;48.922;2.414;2023-12-28T00:59:41;10.73;83.26
77100;SHT31;66602;48.922;2.414;2023-12-28T01:02:07;10.77;83.14
77100;SHT31;66602;48.922;2.414;2023-12-28T01:04:33;10.80;83.21
77100;SHT31;66602;48.922;2.414;2023-12-28T01:06:58;10.79;83.08
77100;SHT31;66602;48.922;2.414;2023-12-28T01:09:27;10.77;83.20
77100;SHT31;66602;48.922;2.414;2023-12-28T01:11:53;10.76;83.21
77100;SHT31;66602;48.922;2.414;2023-12-28T01:14:18;10.69;83.54
77100;SHT31;66602;48.922;2.414;2023-12-28T01:16:44;10.65;83.76
77100;SHT31;66602;48.922;2.414;2023-12-28T01:19:09;10.62;83.74
77100;SHT31;66602;48.922;2.414;2023-12-28T01:21:35;10.69;83.91
77100;SHT31;66602;48.922;2.414;2023-12-28T01:24:01;10.65;83.86
77100;SHT31;66602;48.922;2.414;2023-12-28T01:26:26;10.62;83.82
77100;SHT31;66602;48.922;2.414;2023-12-28T01:28:52;10.63;84.08
77100;SHT31;66602;48.922;2.414;2023-12-28T01:31:17;10.59;84.07
77100;SHT31;66602;48.922;2.414;2023-12-28T01:33:43;10.58;84.30
77100;SHT31;66602;48.922;2.414;2023-12-28T01:36:18;10.54;84.34
77100;SHT31;66602;48.922;2.414;2023-12-28T01:38:44;10.49;84.68
77100;SHT31;66602;48.922;2.414;2023-12-28T01:41:09;10.55;84.54
77100;SHT31;66602;48.922;2.414;2023-12-28T01:43:35;10.55;84.65
77100;SHT31;66602;48.922;2.414;2023-12-28T01:46:01;10.55;84.75
77100;SHT31;66602;48.922;2.414;2023-12-28T01:48:27;10.49;84.85
77100;SHT31;66602;48.922;2.414;2023-12-28T01:50:54;10.51;85.03
77100;SHT31;66602;48.922;2.414;2023-12-28T01:53:19;10.56;84.80
77100;SHT31;66602;48.922;2.414;2023-12-28T01:55:45;10.55;85.02
77100;SHT31;66602;48.922;2.414;2023-12-28T01:58:10;10.49;85.16
77100;SHT31;66602;48.922;2.414;2023-12-28T02:00:37;10.55;85.28
77100;SHT31;66602;48.922;2.414;2023-12-28T02:03:06;10.54;85.32
77100;SHT31;66602;48.922;2.414;2023-12-28T02:05:32;10.51;85.41
77100;SHT31;66602;48.922;2.414;2023-12-28T02:07:58;10.55;85.32
77100;SHT31;66602;48.922;2.414;2023-12-28T02:10:23;10.45;85.39
77100;SHT31;66602;48.922;2.414;2023-12-28T02:12:49;10.40;85.89
77100;SHT31;66602;48.922;2.414;2023-12-28T02:15:15;10.44;85.99
77100;SHT31;66602;48.922;2.414;2023-12-28T02:17:54;10.63;85.50
77100;SHT31;66602;48.922;2.414;2023-12-28T02:20:21;10.56;85.67
77100;SHT31;66602;48.922;2.414;2023-12-28T02:22:47;10.54;85.91
77100;SHT31;66602;48.922;2.414;2023-12-28T02:25:13;10.41;86.32
77100;SHT31;66602;48.922;2.414;2023-12-28T02:27:42;10.37;86.69
77100;SHT31;66602;48.922;2.414;2023-12-28T02:30:09;10.34;86.70
77100;SHT31;66602;48.922;2.414;2023-12-28T02:35:21;10.17;87.58
77100;SHT31;66602;48.922;2.414;2023-12-28T02:37:51;10.18;87.94
77100;SHT31;66602;48.922;2.414;2023-12-28T02:40:18;10.20;87.97
77100;SHT31;66602;48.922;2.414;2023-12-28T02:42:44;10.28;87.71
77100;SHT31;66602;48.922;2.414;2023-12-28T02:45:10;10.24;87.74
77100;SHT31;66602;48.922;2.414;2023-12-28T02:47:36;10.28;87.81
77100;SHT31;66602;48.922;2.414;2023-12-28T02:50:01;10.31;87.56
77100;SHT31;66602;48.922;2.414;2023-12-28T02:52:27;10.37;87.68
77100;SHT31;66602;48.922;2.414;2023-12-28T02:54:53;10.42;87.73
77100;SHT31;66602;48.922;2.414;2023-12-28T02:57:18;10.40;87.22
77100;SHT31;66602;48.922;2.414;2023-12-28T02:59:45;10.37;87.74
77100;SHT31;66602;48.922;2.414;2023-12-28T03:02:10;10.37;87.89
77100;SHT31;66602;48.922;2.414;2023-12-28T03:04:36;10.51;87.35
77100;SHT31;66602;48.922;2.414;2023-12-28T03:07:01;10.38;87.63
77100;SHT31;66602;48.922;2.414;2023-12-28T03:09:27;10.35;87.66
77100;SHT31;66602;48.922;2.414;2023-12-28T03:11:52;10.31;87.69
77100;SHT31;66602;48.922;2.414;2023-12-28T03:14:18;10.41;87.54
77100;SHT31;66602;48.922;2.414;2023-12-28T03:16:43;10.40;87.66
77100;SHT31;66602;48.922;2.414;2023-12-28T03:19:09;10.38;87.50
77100;SHT31;66602;48.922;2.414;2023-12-28T03:21:39;10.37;87.91
77100;SHT31;66602;48.922;2.414;2023-12-28T03:24:05;10.33;87.80
77100;SHT31;66602;48.922;2.414;2023-12-28T03:26:30;10.34;87.77
77100;SHT31;66602;48.922;2.414;2023-12-28T03:28:56;10.31;87.95
77100;SHT31;66602;48.922;2.414;2023-12-28T03:31:21;10.35;87.87
77100;SHT31;66602;48.922;2.414;2023-12-28T03:33:47;10.52;87.46
77100;SHT31;66602;48.922;2.414;2023-12-28T03:36:19;10.56;86.97
77100;SHT31;66602;48.922;2.414;2023-12-28T03:38:45;10.55;87.12
77100;SHT31;66602;48.922;2.414;2023-12-28T03:41:20;10.45;87.28
77100;SHT31;66602;48.922;2.414;2023-12-28T03:43:46;10.37;87.56
77100;SHT31;66602;48.922;2.414;2023-12-28T03:46:12;10.41;87.49
77100;SHT31;66602;48.922;2.414;2023-12-28T03:48:38;10.41;87.34
77100;SHT31;66602;48.922;2.414;2023-12-28T03:51:04;10.40;87.66
77100;SHT31;66602;48.922;2.414;2023-12-28T03:53:30;10.30;88.11
77100;SHT31;66602;48.922;2.414;2023-12-28T03:55:59;10.15;88.45
77100;SHT31;66602;48.922;2.414;2023-12-28T03:58:25;10.15;88.52
77100;SHT31;66602;48.922;2.414;2023-12-28T04:00:50;10.20;88.19
77100;SHT31;66602;48.922;2.414;2023-12-28T04:03:16;10.05;88.62
77100;SHT31;66602;48.922;2.414;2023-12-28T04:05:43;9.93;89.07
77100;SHT31;66602;48.922;2.414;2023-12-28T04:08:09;9.86;89.58
77100;SHT31;66602;48.922;2.414;2023-12-28T04:10:34;9.90;89.45
77100;SHT31;66602;48.922;2.414;2023-12-28T04:13:03;9.91;89.50
77100;SHT31;66602;48.922;2.414;2023-12-28T04:15:29;9.95;89.14
77100;SHT31;66602;48.922;2.414;2023-12-28T04:17:55;9.93;89.10
77100;SHT31;66602;48.922;2.414;2023-12-28T04:20:20;10.10;88.74
77100;SHT31;66602;48.922;2.414;2023-12-28T04:22:46;10.10;88.33
77100;SHT31;66602;48.922;2.414;2023-12-28T04:25:11;10.14;88.37
77100;SHT31;66602;48.922;2.414;2023-12-28T04:27:38;10.08;88.49
77100;SHT31;66602;48.922;2.414;2023-12-28T04:30:05;10.07;88.38
77100;SHT31;66602;48.922;2.414;2023-12-28T04:32:33;9.98;88.56
77100;SHT31;66602;48.922;2.414;2023-12-28T04:34:59;10.04;88.34
77100;SHT31;66602;48.922;2.414;2023-12-28T04:37:25;10.00;88.47
77100;SHT31;66602;48.922;2.414;2023-12-28T04:39:52;10.01;88.36
77100;SHT31;66602;48.922;2.414;2023-12-28T04:42:18;9.97;88.46
77100;SHT31;66602;48.922;2.414;2023-12-28T04:44:44;10.01;88.66
77100;SHT31;66602;48.922;2.414;2023-12-28T04:47:09;9.95;88.52
77100;SHT31;66602;48.922;2.414;2023-12-28T04:49:35;9.98;88.87
77100;SHT31;66602;48.922;2.414;2023-12-28T04:52:00;9.93;88.89
77100;SHT31;66602;48.922;2.414;2023-12-28T04:54:26;9.91;88.94
77100;SHT31;66602;48.922;2.414;2023-12-28T04:56:51;9.84;89.08
77100;SHT31;66602;48.922;2.414;2023-12-28T04:59:17;9.80;89.22
77100;SHT31;66602;48.922;2.414;2023-12-28T05:01:43;9.72;89.41
77100;SHT31;66602;48.922;2.414;2023-12-28T05:04:09;9.76;89.53
77100;SHT31;66602;48.922;2.414;2023-12-28T05:06:35;9.76;89.50
77100;SHT31;66602;48.922;2.414;2023-12-28T05:09:00;9.77;89.24
77100;SHT31;66602;48.922;2.414;2023-12-28T05:11:26;9.74;89.36
77100;SHT31;66602;48.922;2.414;2023-12-28T05:13:52;9.69;89.50
77100;SHT31;66602;48.922;2.414;2023-12-28T05:16:17;9.73;89.82
77100;SHT31;66602;48.922;2.414;2023-12-28T05:18:43;9.79;89.40
77100;SHT31;66602;48.922;2.414;2023-12-28T05:21:08;9.74;88.99
77100;SHT31;66602;48.922;2.414;2023-12-28T05:23:34;9.66;89.72
77100;SHT31;66602;48.922;2.414;2023-12-28T05:25:59;9.65;89.51
77100;SHT31;66602;48.922;2.414;2023-12-28T05:28:25;9.66;89.71
77100;SHT31;66602;48.922;2.414;2023-12-28T05:30:50;9.63;89.63
77100;SHT31;66602;48.922;2.414;2023-12-28T05:33:16;9.63;89.81
77100;SHT31;66602;48.922;2.414;2023-12-28T05:35:41;9.69;89.85
77100;SHT31;66602;48.922;2.414;2023-12-28T05:38:07;9.74;89.53
77100;SHT31;66602;48.922;2.414;2023-12-28T05:40:32;9.90;88.99
77100;SHT31;66602;48.922;2.414;2023-12-28T05:42:58;9.91;88.70
77100;SHT31;66602;48.922;2.414;2023-12-28T05:45:23;9.91;88.78
77100;SHT31;66602;48.922;2.414;2023-12-28T05:47:49;9.90;88.67
77100;SHT31;66602;48.922;2.414;2023-12-28T05:50:15;10.00;88.61
77100;SHT31;66602;48.922;2.414;2023-12-28T05:52:40;9.97;88.34
77100;SHT31;66602;48.922;2.414;2023-12-28T05:55:06;9.89;88.53
77100;SHT31;66602;48.922;2.414;2023-12-28T05:57:32;9.79;89.07
77100;SHT31;66602;48.922;2.414;2023-12-28T05:59:57;9.65;89.83
77100;SHT31;66602;48.922;2.414;2023-12-28T06:02:23;9.70;89.76
77100;SHT31;66602;48.922;2.414;2023-12-28T06:04:48;9.57;89.77
77100;SHT31;66602;48.922;2.414;2023-12-28T06:07:15;9.46;90.21
77100;SHT31;66602;48.922;2.414;2023-12-28T06:09:40;9.29;90.37
77100;SHT31;66602;48.922;2.414;2023-12-28T06:12:06;9.19;91.38
77100;SHT31;66602;48.922;2.414;2023-12-28T06:14:32;9.11;91.43
77100;SHT31;66602;48.922;2.414;2023-12-28T06:16:57;9.01;91.83
77100;SHT31;66602;48.922;2.414;2023-12-28T06:19:22;8.97;92.30
77100;SHT31;66602;48.922;2.414;2023-12-28T06:21:48;8.94;92.34
77100;SHT31;66602;48.922;2.414;2023-12-28T06:24:14;8.92;92.61
77100;SHT31;66602;48.922;2.414;2023-12-28T06:26:43;8.78;92.51
77100;SHT31;66602;48.922;2.414;2023-12-28T06:29:09;8.75;92.91
77100;SHT31;66602;48.922;2.414;2023-12-28T06:31:36;8.63;92.63
77100;SHT31;66602;48.922;2.414;2023-12-28T06:34:05;8.63;93.33
77100;SHT31;66602;48.922;2.414;2023-12-28T06:36:32;8.47;92.91
77100;SHT31;66602;48.922;2.414;2023-12-28T06:38:58;8.36;93.46
77100;SHT31;66602;48.922;2.414;2023-12-28T06:41:24;8.23;93.53
77100;SHT31;66602;48.922;2.414;2023-12-28T06:43:50;8.19;94.16
77100;SHT31;66602;48.922;2.414;2023-12-28T06:46:16;8.26;94.66
77100;SHT31;66602;48.922;2.414;2023-12-28T06:48:42;8.39;94.80
77100;SHT31;66602;48.922;2.414;2023-12-28T06:51:18;8.64;94.35
77100;SHT31;66602;48.922;2.414;2023-12-28T06:53:44;8.52;93.77
77100;SHT31;66602;48.922;2.414;2023-12-28T06:56:10;8.59;94.05
77100;SHT31;66602;48.922;2.414;2023-12-28T06:58:35;8.56;94.01
77100;SHT31;66602;48.922;2.414;2023-12-28T07:01:03;8.67;94.10
77100;SHT31;66602;48.922;2.414;2023-12-28T07:03:29;8.73;93.99
77100;SHT31;66602;48.922;2.414;2023-12-28T07:05:58;8.75;93.84
77100;SHT31;66602;48.922;2.414;2023-12-28T07:08:23;8.80;93.64
77100;SHT31;66602;48.922;2.414;2023-12-28T07:10:49;9.07;93.20
77100;SHT31;66602;48.922;2.414;2023-12-28T07:13:14;9.28;92.12
77100;SHT31;66602;48.922;2.414;2023-12-28T07:15:40;9.39;91.52
77100;SHT31;66602;48.922;2.414;2023-12-28T07:18:06;9.45;91.26
77100;SHT31;66602;48.922;2.414;2023-12-28T07:20:31;9.52;91.34
77100;SHT31;66602;48.922;2.414;2023-12-28T07:22:57;9.59;90.93
77100;SHT31;66602;48.922;2.414;2023-12-28T07:25:22;9.69;90.66
77100;SHT31;66602;48.922;2.414;2023-12-28T07:27:48;9.63;90.51
77100;SHT31;66602;48.922;2.414;2023-12-28T07:30:13;9.63;90.83
77100;SHT31;66602;48.922;2.414;2023-12-28T07:32:39;9.73;90.49
77100;SHT31;66602;48.922;2.414;2023-12-28T07:35:05;9.97;89.68
77100;SHT31;66602;48.922;2.414;2023-12-28T07:37:30;10.01;89.34
77100;SHT31;66602;48.922;2.414;2023-12-28T07:39:56;10.05;89.16
77100;SHT31;66602;48.922;2.414;2023-12-28T07:42:22;10.11;88.87
77100;SHT31;66602;48.922;2.414;2023-12-28T07:44:48;10.20;88.61
77100;SHT31;66602;48.922;2.414;2023-12-28T07:47:14;10.25;88.33
77100;SHT31;66602;48.922;2.414;2023-12-28T07:49:40;10.25;88.46
77100;SHT31;66602;48.922;2.414;2023-12-28T07:52:06;10.25;88.38
77100;SHT31;66602;48.922;2.414;2023-12-28T07:54:31;10.22;88.44
77100;SHT31;66602;48.922;2.414;2023-12-28T07:56:57;10.22;88.51
77100;SHT31;66602;48.922;2.414;2023-12-28T07:59:22;10.22;88.53
77100;SHT31;66602;48.922;2.414;2023-12-28T08:01:48;10.24;88.48
77100;SHT31;66602;48.922;2.414;2023-12-28T08:07:36;10.25;88.57
77100;SHT31;66602;48.922;2.414;2023-12-28T08:10:01;10.28;88.37
77100;SHT31;66602;48.922;2.414;2023-12-28T08:12:27;10.25;88.24
77100;SHT31;66602;48.922;2.414;2023-12-28T08:14:54;10.22;88.59
77100;SHT31;66602;48.922;2.414;2023-12-28T08:17:19;10.18;88.69
77100;SHT31;66602;48.922;2.414;2023-12-28T08:19:45;10.28;88.53
77100;SHT31;66602;48.922;2.414;2023-12-28T08:22:11;10.35;88.28
77100;SHT31;66602;48.922;2.414;2023-12-28T08:24:36;10.44;88.04
77100;SHT31;66602;48.922;2.414;2023-12-28T08:27:02;10.44;88.01
77100;SHT31;66602;48.922;2.414;2023-12-28T08:29:28;10.52;87.72
77100;SHT31;66602;48.922;2.414;2023-12-28T08:31:53;10.51;87.55
77100;SHT31;66602;48.922;2.414;2023-12-28T08:34:20;10.56;87.44
77100;SHT31;66602;48.922;2.414;2023-12-28T08:36:46;10.61;87.19
77100;SHT31;66602;48.922;2.414;2023-12-28T08:39:12;10.59;87.24
77100;SHT31;66602;48.922;2.414;2023-12-28T08:41:37;10.52;87.51
77100;SHT31;66602;48.922;2.414;2023-12-28T08:44:03;10.52;87.40
77100;SHT31;66602;48.922;2.414;2023-12-28T08:46:28;10.51;87.58
77100;SHT31;66602;48.922;2.414;2023-12-28T08:48:54;10.54;87.18
77100;SHT31;66602;48.922;2.414;2023-12-28T08:51:21;10.49;87.25
77100;SHT31;66602;48.922;2.414;2023-12-28T08:53:47;10.42;87.49
77100;SHT31;66602;48.922;2.414;2023-12-28T08:56:16;10.34;87.82
77100;SHT31;66602;48.922;2.414;2023-12-28T08:58:41;10.30;87.87
77100;SHT31;66602;48.922;2.414;2023-12-28T09:01:07;10.31;87.94
77100;SHT31;66602;48.922;2.414;2023-12-28T09:03:32;10.30;87.92
77100;SHT31;66602;48.922;2.414;2023-12-28T09:05:58;10.40;87.78
77100;SHT31;66602;48.922;2.414;2023-12-28T09:08:23;10.61;86.86
77100;SHT31;66602;48.922;2.414;2023-12-28T09:10:49;10.71;86.47
77100;SHT31;66602;48.922;2.414;2023-12-28T09:13:15;10.73;86.24
77100;SHT31;66602;48.922;2.414;2023-12-28T09:15:42;10.77;86.21
77100;SHT31;66602;48.922;2.414;2023-12-28T09:18:08;10.91;85.75
77100;SHT31;66602;48.922;2.414;2023-12-28T09:20:33;10.96;85.64
77100;SHT31;66602;48.922;2.414;2023-12-28T09:23:01;11.02;85.19
77100;SHT31;66602;48.922;2.414;2023-12-28T09:25:26;11.10;85.10
77100;SHT31;66602;48.922;2.414;2023-12-28T09:27:52;11.10;85.01
77100;SHT31;66602;48.922;2.414;2023-12-28T09:30:17;11.12;84.96
77100;SHT31;66602;48.922;2.414;2023-12-28T09:32:43;11.09;84.91
77100;SHT31;66602;48.922;2.414;2023-12-28T09:35:08;11.07;84.92
77100;SHT31;66602;48.922;2.414;2023-12-28T09:37:33;11.09;84.44
77100;SHT31;66602;48.922;2.414;2023-12-28T09:39:59;11.10;84.28
77100;SHT31;66602;48.922;2.414;2023-12-28T09:42:32;11.12;84.32
77100;SHT31;66602;48.922;2.414;2023-12-28T09:45:02;11.14;84.13
77100;SHT31;66602;48.922;2.414;2023-12-28T09:47:29;11.13;84.17
77100;SHT31;66602;48.922;2.414;2023-12-28T09:49:56;11.16;84.35
77100;SHT31;66602;48.922;2.414;2023-12-28T09:52:22;11.13;84.55
77100;SHT31;66602;48.922;2.414;2023-12-28T09:54:47;11.00;84.84
77100;SHT31;66602;48.922;2.414;2023-12-28T09:57:13;10.95;85.01
77100;SHT31;66602;48.922;2.414;2023-12-28T09:59:39;10.92;85.08
77100;SHT31;66602;48.922;2.414;2023-12-28T10:02:06;10.95;85.12
77100;SHT31;66602;48.922;2.414;2023-12-28T10:04:32;10.99;85.14
77100;SHT31;66602;48.922;2.414;2023-12-28T10:06:58;11.12;84.79
77100;SHT31;66602;48.922;2.414;2023-12-28T10:09:23;11.23;84.13
77100;SHT31;66602;48.922;2.414;2023-12-28T10:11:53;11.28;84.12
77100;SHT31;66602;48.922;2.414;2023-12-28T10:14:19;11.34;83.91
77100;SHT31;66602;48.922;2.414;2023-12-28T10:16:46;11.51;83.45
77100;SHT31;66602;48.922;2.414;2023-12-28T10:19:13;11.58;83.48
77100;SHT31;66602;48.922;2.414;2023-12-28T10:21:42;11.72;82.51
77100;SHT31;66602;48.922;2.414;2023-12-28T10:24:10;11.68;81.92
77100;SHT31;66602;48.922;2.414;2023-12-28T10:26:36;11.79;81.85
77100;SHT31;66602;48.922;2.414;2023-12-28T10:29:02;11.99;81.01
77100;SHT31;66602;48.922;2.414;2023-12-28T10:31:29;11.98;80.58
77100;SHT31;66602;48.922;2.414;2023-12-28T10:34:00;12.15;80.34
77100;SHT31;66602;48.922;2.414;2023-12-28T10:36:29;12.34;79.29
77100;SHT31;66602;48.922;2.414;2023-12-28T10:38:56;12.60;78.53
77100;SHT31;66602;48.922;2.414;2023-12-28T10:41:23;13.25;76.02
77100;SHT31;66602;48.922;2.414;2023-12-28T10:44:04;15.39;69.07
77100;SHT31;66602;48.922;2.414;2023-12-28T10:46:36;16.32;64.16
77100;SHT31;66602;48.922;2.414;2023-12-28T10:49:11;14.82;68.51
77100;SHT31;66602;48.922;2.414;2023-12-28T10:51:42;13.53;73.26
77100;SHT31;66602;48.922;2.414;2023-12-28T10:54:41;13.14;74.69
77100;SHT31;66602;48.922;2.414;2023-12-28T10:57:23;12.70;75.70
77100;SHT31;66602;48.922;2.414;2023-12-28T11:00:13;12.54;76.31
77100;SHT31;66602;48.922;2.414;2023-12-28T11:02:44;12.43;77.02
77100;SHT31;66602;48.922;2.414;2023-12-28T11:05:15;12.54;77.26
77100;SHT31;66602;48.922;2.414;2023-12-28T11:07:43;12.56;76.10
77100;SHT31;66602;48.922;2.414;2023-12-28T11:10:09;12.53;76.54
77100;SHT31;66602;48.922;2.414;2023-12-28T11:12:36;12.88;76.01
77100;SHT31;66602;48.922;2.414;2023-12-28T11:15:05;14.89;69.57
77100;SHT31;66602;48.922;2.414;2023-12-28T11:17:31;14.49;70.08
77100;SHT31;66602;48.922;2.414;2023-12-28T11:19:57;13.91;71.57
77100;SHT31;66602;48.922;2.414;2023-12-28T11:22:25;14.07;70.48
77100;SHT31;66602;48.922;2.414;2023-12-28T11:24:54;13.80;71.42
77100;SHT31;66602;48.922;2.414;2023-12-28T11:27:20;13.66;72.09
77100;SHT31;66602;48.922;2.414;2023-12-28T11:29:48;13.56;73.08
77100;SHT31;66602;48.922;2.414;2023-12-28T11:32:14;13.12;73.98
77100;SHT31;66602;48.922;2.414;2023-12-28T11:34:40;12.76;75.61
77100;SHT31;66602;48.922;2.414;2023-12-28T11:37:08;12.71;75.52
77100;SHT31;66602;48.922;2.414;2023-12-28T11:39:37;12.81;75.13
77100;SHT31;66602;48.922;2.414;2023-12-28T11:42:08;12.83;75.01
77100;SHT31;66602;48.922;2.414;2023-12-28T11:44:41;12.81;75.37
77100;SHT31;66602;48.922;2.414;2023-12-28T11:47:23;12.79;75.18
77100;SHT31;66602;48.922;2.414;2023-12-28T11:49:50;12.64;75.67
77100;SHT31;66602;48.922;2.414;2023-12-28T11:52:29;12.81;75.39
77100;SHT31;66602;48.922;2.414;2023-12-28T11:54:57;12.70;75.79
77100;SHT31;66602;48.922;2.414;2023-12-28T11:57:24;12.97;74.76
77100;SHT31;66602;48.922;2.414;2023-12-28T11:59:55;13.16;74.37
77100;SHT31;66602;48.922;2.414;2023-12-28T12:02:21;13.04;74.35
77100;SHT31;66602;48.922;2.414;2023-12-28T12:04:48;12.80;75.15
77100;SHT31;66602;48.922;2.414;2023-12-28T12:07:14;12.61;75.72
77100;SHT31;66602;48.922;2.414;2023-12-28T12:09:40;12.56;75.96
77100;SHT31;66602;48.922;2.414;2023-12-28T12:12:06;12.37;76.60
77100;SHT31;66602;48.922;2.414;2023-12-28T12:14:34;12.43;76.66
77100;SHT31;66602;48.922;2.414;2023-12-28T12:17:00;12.63;76.07
77100;SHT31;66602;48.922;2.414;2023-12-28T12:19:27;12.73;75.62
77100;SHT31;66602;48.922;2.414;2023-12-28T12:21:54;14.24;71.39
77100;SHT31;66602;48.922;2.414;2023-12-28T12:24:21;14.98;68.07
77100;SHT31;66602;48.922;2.414;2023-12-28T12:26:47;14.51;68.99
77100;SHT31;66602;48.922;2.414;2023-12-28T12:29:14;14.25;69.94
77100;SHT31;66602;48.922;2.414;2023-12-28T12:31:40;13.49;72.45
77100;SHT31;66602;48.922;2.414;2023-12-28T12:34:09;13.29;73.22
77100;SHT31;66602;48.922;2.414;2023-12-28T12:36:36;13.12;74.21
77100;SHT31;66602;48.922;2.414;2023-12-28T12:39:02;13.22;73.66
77100;SHT31;66602;48.922;2.414;2023-12-28T12:41:35;13.45;72.91
77100;SHT31;66602;48.922;2.414;2023-12-28T12:44:01;14.25;70.60
77100;SHT31;66602;48.922;2.414;2023-12-28T12:46:27;15.09;67.44
77100;SHT31;66602;48.922;2.414;2023-12-28T12:48:57;14.79;67.73
77100;SHT31;66602;48.922;2.414;2023-12-28T12:51:25;14.96;67.50
77100;SHT31;66602;48.922;2.414;2023-12-28T12:53:59;14.68;67.81
77100;SHT31;66602;48.922;2.414;2023-12-28T12:56:29;14.13;69.84
77100;SHT31;66602;48.922;2.414;2023-12-28T12:58:55;14.11;69.64
77100;SHT31;66602;48.922;2.414;2023-12-28T13:01:22;13.76;71.03
77100;SHT31;66602;48.922;2.414;2023-12-28T13:03:49;13.42;71.52
77100;SHT31;66602;48.922;2.414;2023-12-28T13:06:15;13.46;72.00
77100;SHT31;66602;48.922;2.414;2023-12-28T13:08:41;13.87;70.31
77100;SHT31;66602;48.922;2.414;2023-12-28T13:11:08;13.91;70.36
77100;SHT31;66602;48.922;2.414;2023-12-28T13:13:34;13.91;70.24
77100;SHT31;66602;48.922;2.414;2023-12-28T13:16:01;14.32;69.68
77100;SHT31;66602;48.922;2.414;2023-12-28T13:18:27;14.65;68.73
77100;SHT31;66602;48.922;2.414;2023-12-28T13:20:53;15.50;65.99
77100;SHT31;66602;48.922;2.414;2023-12-28T13:23:19;15.64;65.41
77100;SHT31;66602;48.922;2.414;2023-12-28T13:25:45;15.13;66.49
77100;SHT31;66602;48.922;2.414;2023-12-28T13:28:11;14.93;67.01
77100;SHT31;66602;48.922;2.414;2023-12-28T13:30:39;14.25;69.15
77100;SHT31;66602;48.922;2.414;2023-12-28T13:33:05;13.89;70.71
77100;SHT31;66602;48.922;2.414;2023-12-28T13:35:32;13.43;72.10
77100;SHT31;66602;48.922;2.414;2023-12-28T13:38:01;13.23;72.83
77100;SHT31;66602;48.922;2.414;2023-12-28T13:40:27;13.26;72.71
77100;SHT31;66602;48.922;2.414;2023-12-28T13:42:53;13.83;71.25
77100;SHT31;66602;48.922;2.414;2023-12-28T13:45:19;14.04;70.22
77100;SHT31;66602;48.922;2.414;2023-12-28T13:47:45;14.16;69.93
77100;SHT31;66602;48.922;2.414;2023-12-28T13:50:11;14.34;69.22
77100;SHT31;66602;48.922;2.414;2023-12-28T13:52:38;13.66;71.21
77100;SHT31;66602;48.922;2.414;2023-12-28T13:55:04;13.74;71.24
77100;SHT31;66602;48.922;2.414;2023-12-28T13:57:29;13.89;70.72
77100;SHT31;66602;48.922;2.414;2023-12-28T13:59:55;14.06;70.05
77100;SHT31;66602;48.922;2.414;2023-12-28T14:02:28;13.99;70.33
77100;SHT31;66602;48.922;2.414;2023-12-28T14:04:53;13.70;71.13
77100;SHT31;66602;48.922;2.414;2023-12-28T14:07:21;13.14;72.91
77100;SHT31;66602;48.922;2.414;2023-12-28T14:09:47;12.88;73.76
77100;SHT31;66602;48.922;2.414;2023-12-28T14:12:12;12.84;74.01
77100;SHT31;66602;48.922;2.414;2023-12-28T14:14:38;12.73;74.27
77100;SHT31;66602;48.922;2.414;2023-12-28T14:17:04;12.67;74.42
77100;SHT31;66602;48.922;2.414;2023-12-28T14:19:30;12.64;74.45
77100;SHT31;66602;48.922;2.414;2023-12-28T14:21:56;12.60;74.50
77100;SHT31;66602;48.922;2.414;2023-12-28T14:24:22;12.59;74.81
77100;SHT31;66602;48.922;2.414;2023-12-28T14:26:52;12.59;74.67
77100;SHT31;66602;48.922;2.414;2023-12-28T14:29:20;12.56;74.97
77100;SHT31;66602;48.922;2.414;2023-12-28T14:31:47;12.49;75.18
77100;SHT31;66602;48.922;2.414;2023-12-28T14:34:13;12.44;75.52
77100;SHT31;66602;48.922;2.414;2023-12-28T14:36:40;12.43;75.59
77100;SHT31;66602;48.922;2.414;2023-12-28T14:39:07;12.37;75.85
77100;SHT31;66602;48.922;2.414;2023-12-28T14:41:35;12.34;76.17
77100;SHT31;66602;48.922;2.414;2023-12-28T14:44:01;12.33;76.18
77100;SHT31;66602;48.922;2.414;2023-12-28T14:46:28;12.28;76.33
77100;SHT31;66602;48.922;2.414;2023-12-28T14:48:55;12.23;76.58
77100;SHT31;66602;48.922;2.414;2023-12-28T14:51:22;12.21;76.86
77100;SHT31;66602;48.922;2.414;2023-12-28T14:53:49;12.21;77.06
77100;SHT31;66602;48.922;2.414;2023-12-28T14:56:16;12.15;77.27
77100;SHT31;66602;48.922;2.414;2023-12-28T14:58:42;12.12;77.50
77100;SHT31;66602;48.922;2.414;2023-12-28T15:01:14;12.08;77.74
77100;SHT31;66602;48.922;2.414;2023-12-28T15:03:40;12.03;77.97
77100;SHT31;66602;48.922;2.414;2023-12-28T15:06:06;11.99;77.96
77100;SHT31;66602;48.922;2.414;2023-12-28T15:08:32;12.03;78.07
77100;SHT31;66602;48.922;2.414;2023-12-28T15:10:58;11.99;78.23
77100;SHT31;66602;48.922;2.414;2023-12-28T15:13:25;12.02;78.25
77100;SHT31;66602;48.922;2.414;2023-12-28T15:15:52;12.08;77.98
77100;SHT31;66602;48.922;2.414;2023-12-28T15:18:18;12.06;78.11
77100;SHT31;66602;48.922;2.414;2023-12-28T15:24:00;11.96;78.69
77100;SHT31;66602;48.922;2.414;2023-12-28T15:26:27;11.91;78.84
77100;SHT31;66602;48.922;2.414;2023-12-28T15:28:53;11.89;78.99
77100;SHT31;66602;48.922;2.414;2023-12-28T15:31:19;11.91;79.03
77100;SHT31;66602;48.922;2.414;2023-12-28T15:33:45;11.92;79.14
77100;SHT31;66602;48.922;2.414;2023-12-28T15:36:11;11.82;79.40
77100;SHT31;66602;48.922;2.414;2023-12-28T15:38:38;11.79;79.60
77100;SHT31;66602;48.922;2.414;2023-12-28T15:41:04;11.81;79.58